sensor_id;sensor_type;location;lat;lon;timestamp;P1;durP1;ratioP1;P2;durP2;ratioP2
68178;SDS011;54998;42.656;23.382;2022-12-07T00:01:06;42.28;;;16.73;;
68178;SDS011;54998;42.656;23.382;2022-12-07T00:03:33;38.47;;;17.15;;
68178;SDS011;54998;42.656;23.382;2022-12-07T00:06:00;43.42;;;17.52;;
68178;SDS011;54998;42.656;23.382;2022-12-07T00:08:26;41.05;;;16.77;;
68178;SDS011;54998;42.656;23.382;2022-12-07T00:10:52;38.60;;;17.70;;
68178;SDS011;54998;42.656;23.382;2022-12-07T00:13:18;37.45;;;16.02;;
68178;SDS011;54998;42.656;23.382;2022-12-07T00:15:43;43.58;;;15.75;;
68178;SDS011;54998;42.656;23.382;2022-12-07T00:18:09;38.90;;;16.77;;
68178;SDS011;54998;42.656;23.382;2022-12-07T00:20:34;41.35;;;18.20;;
68178;SDS011;54998;42.656;23.382;2022-12-07T00:23:00;43.88;;;18.42;;
68178;SDS011;54998;42.656;23.382;2022-12-07T00:25:25;40.75;;;17.08;;
68178;SDS011;54998;42.656;23.382;2022-12-07T00:27:54;40.13;;;17.50;;
68178;SDS011;54998;42.656;23.382;2022-12-07T00:30:23;34.05;;;15.57;;
68178;SDS011;54998;42.656;23.382;2022-12-07T00:32:49;39.10;;;16.73;;
68178;SDS011;54998;42.656;23.382;2022-12-07T00:35:14;37.38;;;17.52;;
68178;SDS011;54998;42.656;23.382;2022-12-07T00:37:40;37.70;;;16.50;;
68178;SDS011;54998;42.656;23.382;2022-12-07T00:40:06;37.42;;;17.38;;
68178;SDS011;54998;42.656;23.382;2022-12-07T00:42:31;42.75;;;16.98;;
68178;SDS011;54998;42.656;23.382;2022-12-07T00:44:58;33.08;;;15.63;;
68178;SDS011;54998;42.656;23.382;2022-12-07T00:47:24;33.10;;;15.85;;
68178;SDS011;54998;42.656;23.382;2022-12-07T00:49:50;37.38;;;15.85;;
68178;SDS011;54998;42.656;23.382;2022-12-07T00:52:15;38.05;;;14.73;;
68178;SDS011;54998;42.656;23.382;2022-12-07T00:54:41;36.90;;;16.60;;
68178;SDS011;54998;42.656;23.382;2022-12-07T00:57:06;33.13;;;16.15;;
68178;SDS011;54998;42.656;23.382;2022-12-07T00:59:31;39.00;;;15.60;;
68178;SDS011;54998;42.656;23.382;2022-12-07T01:01:57;36.17;;;15.65;;
68178;SDS011;54998;42.656;23.382;2022-12-07T01:04:22;40.80;;;17.45;;
68178;SDS011;54998;42.656;23.382;2022-12-07T01:06:48;36.92;;;17.48;;
68178;SDS011;54998;42.656;23.382;2022-12-07T01:09:13;35.58;;;17.15;;
68178;SDS011;54998;42.656;23.382;2022-12-07T01:11:39;41.53;;;15.50;;
68178;SDS011;54998;42.656;23.382;2022-12-07T01:14:04;35.92;;;16.35;;
68178;SDS011;54998;42.656;23.382;2022-12-07T01:16:30;39.42;;;17.58;;
68178;SDS011;54998;42.656;23.382;2022-12-07T01:18:57;38.50;;;16.80;;
68178;SDS011;54998;42.656;23.382;2022-12-07T01:21:25;35.88;;;17.05;;
68178;SDS011;54998;42.656;23.382;2022-12-07T01:23:52;41.08;;;17.00;;
68178;SDS011;54998;42.656;23.382;2022-12-07T01:26:19;35.15;;;15.57;;
68178;SDS011;54998;42.656;23.382;2022-12-07T01:28:46;38.88;;;17.60;;
68178;SDS011;54998;42.656;23.382;2022-12-07T01:31:14;37.20;;;16.40;;
68178;SDS011;54998;42.656;23.382;2022-12-07T01:33:41;34.20;;;15.55;;
68178;SDS011;54998;42.656;23.382;2022-12-07T01:38:50;26.55;;;11.80;;
68178;SDS011;54998;42.656;23.382;2022-12-07T01:41:17;33.70;;;14.80;;
68178;SDS011;54998;42.656;23.382;2022-12-07T01:46:49;35.83;;;14.98;;
68178;SDS011;54998;42.656;23.382;2022-12-07T01:51:52;26.30;;;11.95;;
68178;SDS011;54998;42.656;23.382;2022-12-07T01:54:23;27.33;;;11.65;;
68178;SDS011;54998;42.656;23.382;2022-12-07T01:56:51;23.60;;;10.13;;
68178;SDS011;54998;42.656;23.382;2022-12-07T01:59:20;19.33;;;10.55;;
68178;SDS011;54998;42.656;23.382;2022-12-07T02:01:47;27.08;;;11.57;;
68178;SDS011;54998;42.656;23.382;2022-12-07T02:04:13;24.88;;;12.10;;
68178;SDS011;54998;42.656;23.382;2022-12-07T02:06:39;29.00;;;12.48;;
68178;SDS011;54998;42.656;23.382;2022-12-07T02:09:06;23.95;;;11.70;;
68178;SDS011;54998;42.656;23.382;2022-12-07T02:11:32;28.20;;;12.27;;
68178;SDS011;54998;42.656;23.382;2022-12-07T02:13:57;34.38;;;14.77;;
68178;SDS011;54998;42.656;23.382;2022-12-07T02:21:59;22.60;;;10.75;;
68178;SDS011;54998;42.656;23.382;2022-12-07T02:27:50;24.58;;;12.15;;
68178;SDS011;54998;42.656;23.382;2022-12-07T02:30:21;27.63;;;11.43;;
68178;SDS011;54998;42.656;23.382;2022-12-07T02:33:05;29.00;;;12.95;;
68178;SDS011;54998;42.656;23.382;2022-12-07T02:35:39;25.83;;;11.95;;
68178;SDS011;54998;42.656;23.382;2022-12-07T02:38:25;30.25;;;13.63;;
68178;SDS011;54998;42.656;23.382;2022-12-07T02:43:28;36.42;;;16.00;;
68178;SDS011;54998;42.656;23.382;2022-12-07T02:45:58;34.47;;;14.68;;
68178;SDS011;54998;42.656;23.382;2022-12-07T02:48:28;33.63;;;14.52;;
68178;SDS011;54998;42.656;23.382;2022-12-07T02:50:54;34.22;;;15.80;;
68178;SDS011;54998;42.656;23.382;2022-12-07T02:53:33;38.75;;;17.75;;
68178;SDS011;54998;42.656;23.382;2022-12-07T02:56:00;41.50;;;17.73;;
68178;SDS011;54998;42.656;23.382;2022-12-07T03:03:58;45.78;;;20.77;;
68178;SDS011;54998;42.656;23.382;2022-12-07T03:06:41;46.08;;;20.52;;
68178;SDS011;54998;42.656;23.382;2022-12-07T03:12:07;43.58;;;19.83;;
68178;SDS011;54998;42.656;23.382;2022-12-07T03:15:02;48.15;;;21.00;;
68178;SDS011;54998;42.656;23.382;2022-12-07T03:17:33;48.55;;;20.00;;
68178;SDS011;54998;42.656;23.382;2022-12-07T03:20:04;44.42;;;20.33;;
68178;SDS011;54998;42.656;23.382;2022-12-07T03:22:33;49.08;;;20.98;;
68178;SDS011;54998;42.656;23.382;2022-12-07T03:25:02;42.53;;;20.70;;
68178;SDS011;54998;42.656;23.382;2022-12-07T03:27:32;45.30;;;19.02;;
68178;SDS011;54998;42.656;23.382;2022-12-07T03:30:12;46.30;;;20.20;;
68178;SDS011;54998;42.656;23.382;2022-12-07T03:32:43;52.88;;;21.67;;
68178;SDS011;54998;42.656;23.382;2022-12-07T03:35:27;53.45;;;20.40;;
68178;SDS011;54998;42.656;23.382;2022-12-07T03:38:06;44.55;;;20.77;;
68178;SDS011;54998;42.656;23.382;2022-12-07T03:40:54;48.97;;;20.92;;
68178;SDS011;54998;42.656;23.382;2022-12-07T03:43:31;42.05;;;18.48;;
68178;SDS011;54998;42.656;23.382;2022-12-07T03:48:35;53.33;;;20.65;;
68178;SDS011;54998;42.656;23.382;2022-12-07T03:51:14;37.67;;;19.48;;
68178;SDS011;54998;42.656;23.382;2022-12-07T03:56:27;42.75;;;18.80;;
68178;SDS011;54998;42.656;23.382;2022-12-07T03:58:54;47.58;;;19.75;;
68178;SDS011;54998;42.656;23.382;2022-12-07T04:01:20;41.50;;;19.77;;
68178;SDS011;54998;42.656;23.382;2022-12-07T04:03:45;46.85;;;21.33;;
68178;SDS011;54998;42.656;23.382;2022-12-07T04:06:11;47.75;;;21.13;;
68178;SDS011;54998;42.656;23.382;2022-12-07T04:08:36;47.15;;;19.55;;
68178;SDS011;54998;42.656;23.382;2022-12-07T04:11:01;48.38;;;20.80;;
68178;SDS011;54998;42.656;23.382;2022-12-07T04:13:27;47.35;;;20.77;;
68178;SDS011;54998;42.656;23.382;2022-12-07T04:15:52;46.38;;;19.05;;
68178;SDS011;54998;42.656;23.382;2022-12-07T04:18:18;52.83;;;19.83;;
68178;SDS011;54998;42.656;23.382;2022-12-07T04:20:43;53.92;;;21.13;;
68178;SDS011;54998;42.656;23.382;2022-12-07T04:23:08;51.72;;;21.23;;
68178;SDS011;54998;42.656;23.382;2022-12-07T04:25:34;48.67;;;20.80;;
68178;SDS011;54998;42.656;23.382;2022-12-07T04:27:59;39.45;;;17.48;;
68178;SDS011;54998;42.656;23.382;2022-12-07T04:30:25;45.42;;;18.58;;
68178;SDS011;54998;42.656;23.382;2022-12-07T04:32:50;46.45;;;18.60;;
68178;SDS011;54998;42.656;23.382;2022-12-07T04:35:15;44.25;;;17.92;;
68178;SDS011;54998;42.656;23.382;2022-12-07T04:37:41;50.28;;;17.38;;
68178;SDS011;54998;42.656;23.382;2022-12-07T04:40:09;42.47;;;16.55;;
68178;SDS011;54998;42.656;23.382;2022-12-07T04:42:36;43.67;;;16.42;;
68178;SDS011;54998;42.656;23.382;2022-12-07T04:45:02;45.92;;;16.80;;
68178;SDS011;54998;42.656;23.382;2022-12-07T04:47:27;48.22;;;18.40;;
68178;SDS011;54998;42.656;23.382;2022-12-07T04:49:53;45.15;;;18.55;;
68178;SDS011;54998;42.656;23.382;2022-12-07T04:52:18;43.28;;;16.98;;
68178;SDS011;54998;42.656;23.382;2022-12-07T04:54:44;51.60;;;19.08;;
68178;SDS011;54998;42.656;23.382;2022-12-07T04:57:09;50.95;;;19.23;;
68178;SDS011;54998;42.656;23.382;2022-12-07T04:59:34;50.35;;;19.70;;
68178;SDS011;54998;42.656;23.382;2022-12-07T05:02:00;49.22;;;19.75;;
68178;SDS011;54998;42.656;23.382;2022-12-07T05:04:25;48.78;;;20.00;;
68178;SDS011;54998;42.656;23.382;2022-12-07T05:06:50;53.58;;;21.60;;
68178;SDS011;54998;42.656;23.382;2022-12-07T05:09:16;51.30;;;21.15;;
68178;SDS011;54998;42.656;23.382;2022-12-07T05:11:41;56.65;;;20.30;;
68178;SDS011;54998;42.656;23.382;2022-12-07T05:16:38;48.20;;;21.45;;
68178;SDS011;54998;42.656;23.382;2022-12-07T05:19:04;50.63;;;19.67;;
68178;SDS011;54998;42.656;23.382;2022-12-07T05:21:30;57.42;;;21.83;;
68178;SDS011;54998;42.656;23.382;2022-12-07T05:23:56;53.83;;;22.05;;
68178;SDS011;54998;42.656;23.382;2022-12-07T05:26:21;48.45;;;20.42;;
68178;SDS011;54998;42.656;23.382;2022-12-07T05:28:50;51.55;;;20.42;;
68178;SDS011;54998;42.656;23.382;2022-12-07T05:31:16;50.60;;;20.42;;
68178;SDS011;54998;42.656;23.382;2022-12-07T05:33:42;51.92;;;20.83;;
68178;SDS011;54998;42.656;23.382;2022-12-07T05:36:07;53.60;;;20.33;;
68178;SDS011;54998;42.656;23.382;2022-12-07T05:38:33;56.10;;;21.98;;
68178;SDS011;54998;42.656;23.382;2022-12-07T05:41:02;51.63;;;22.60;;
68178;SDS011;54998;42.656;23.382;2022-12-07T05:43:29;48.15;;;19.33;;
68178;SDS011;54998;42.656;23.382;2022-12-07T05:45:55;50.58;;;20.40;;
68178;SDS011;54998;42.656;23.382;2022-12-07T05:48:21;55.90;;;21.77;;
68178;SDS011;54998;42.656;23.382;2022-12-07T05:50:49;52.53;;;21.90;;
68178;SDS011;54998;42.656;23.382;2022-12-07T05:53:15;49.10;;;20.95;;
68178;SDS011;54998;42.656;23.382;2022-12-07T05:55:41;48.05;;;20.38;;
68178;SDS011;54998;42.656;23.382;2022-12-07T05:58:08;55.03;;;19.67;;
68178;SDS011;54998;42.656;23.382;2022-12-07T06:00:55;46.55;;;18.02;;
68178;SDS011;54998;42.656;23.382;2022-12-07T06:03:21;49.15;;;19.30;;
68178;SDS011;54998;42.656;23.382;2022-12-07T06:05:49;52.53;;;21.58;;
68178;SDS011;54998;42.656;23.382;2022-12-07T06:08:14;50.17;;;21.25;;
68178;SDS011;54998;42.656;23.382;2022-12-07T06:10:40;53.47;;;21.70;;
68178;SDS011;54998;42.656;23.382;2022-12-07T06:13:06;52.92;;;20.67;;
68178;SDS011;54998;42.656;23.382;2022-12-07T06:15:32;53.67;;;22.17;;
68178;SDS011;54998;42.656;23.382;2022-12-07T06:18:00;51.78;;;20.45;;
68178;SDS011;54998;42.656;23.382;2022-12-07T06:20:25;52.65;;;20.35;;
68178;SDS011;54998;42.656;23.382;2022-12-07T06:22:50;56.35;;;22.60;;
68178;SDS011;54998;42.656;23.382;2022-12-07T06:25:16;57.10;;;23.38;;
68178;SDS011;54998;42.656;23.382;2022-12-07T06:27:41;54.20;;;22.45;;
68178;SDS011;54998;42.656;23.382;2022-12-07T06:30:06;46.50;;;20.23;;
68178;SDS011;54998;42.656;23.382;2022-12-07T06:32:33;55.83;;;20.20;;
68178;SDS011;54998;42.656;23.382;2022-12-07T06:34:59;55.85;;;20.67;;
68178;SDS011;54998;42.656;23.382;2022-12-07T06:37:24;47.45;;;20.27;;
68178;SDS011;54998;42.656;23.382;2022-12-07T06:39:50;56.67;;;21.52;;
68178;SDS011;54998;42.656;23.382;2022-12-07T06:42:15;55.10;;;21.02;;
68178;SDS011;54998;42.656;23.382;2022-12-07T06:44:41;46.58;;;18.77;;
68178;SDS011;54998;42.656;23.382;2022-12-07T06:47:06;49.72;;;20.13;;
68178;SDS011;54998;42.656;23.382;2022-12-07T06:49:32;57.13;;;20.63;;
68178;SDS011;54998;42.656;23.382;2022-12-07T06:51:58;53.00;;;19.92;;
68178;SDS011;54998;42.656;23.382;2022-12-07T06:54:23;40.60;;;18.98;;
68178;SDS011;54998;42.656;23.382;2022-12-07T06:56:48;50.63;;;21.58;;
68178;SDS011;54998;42.656;23.382;2022-12-07T06:59:14;38.90;;;18.80;;
68178;SDS011;54998;42.656;23.382;2022-12-07T07:01:39;42.50;;;17.08;;
68178;SDS011;54998;42.656;23.382;2022-12-07T07:04:05;39.10;;;18.52;;
68178;SDS011;54998;42.656;23.382;2022-12-07T07:06:30;40.92;;;19.30;;
68178;SDS011;54998;42.656;23.382;2022-12-07T07:08:56;37.72;;;18.05;;
68178;SDS011;54998;42.656;23.382;2022-12-07T07:11:21;45.97;;;17.17;;
68178;SDS011;54998;42.656;23.382;2022-12-07T07:13:46;42.17;;;19.20;;
68178;SDS011;54998;42.656;23.382;2022-12-07T07:16:12;44.30;;;19.08;;
68178;SDS011;54998;42.656;23.382;2022-12-07T07:18:37;46.22;;;20.30;;
68178;SDS011;54998;42.656;23.382;2022-12-07T07:21:03;43.33;;;18.80;;
68178;SDS011;54998;42.656;23.382;2022-12-07T07:23:28;42.22;;;19.17;;
68178;SDS011;54998;42.656;23.382;2022-12-07T07:25:54;40.55;;;18.52;;
68178;SDS011;54998;42.656;23.382;2022-12-07T07:28:20;40.78;;;18.88;;
68178;SDS011;54998;42.656;23.382;2022-12-07T07:30:45;40.53;;;19.02;;
68178;SDS011;54998;42.656;23.382;2022-12-07T07:33:11;37.17;;;18.88;;
68178;SDS011;54998;42.656;23.382;2022-12-07T07:35:37;44.15;;;19.58;;
68178;SDS011;54998;42.656;23.382;2022-12-07T07:38:03;39.47;;;17.98;;
68178;SDS011;54998;42.656;23.382;2022-12-07T07:40:29;38.15;;;18.00;;
68178;SDS011;54998;42.656;23.382;2022-12-07T07:42:55;39.40;;;18.35;;
68178;SDS011;54998;42.656;23.382;2022-12-07T07:45:21;41.65;;;18.73;;
68178;SDS011;54998;42.656;23.382;2022-12-07T07:47:48;39.67;;;18.52;;
68178;SDS011;54998;42.656;23.382;2022-12-07T07:50:13;39.60;;;18.63;;
68178;SDS011;54998;42.656;23.382;2022-12-07T07:52:39;41.00;;;18.73;;
68178;SDS011;54998;42.656;23.382;2022-12-07T07:55:05;37.08;;;18.85;;
68178;SDS011;54998;42.656;23.382;2022-12-07T07:57:32;38.95;;;19.63;;
68178;SDS011;54998;42.656;23.382;2022-12-07T07:59:57;41.17;;;18.38;;
68178;SDS011;54998;42.656;23.382;2022-12-07T08:02:23;42.13;;;20.38;;
68178;SDS011;54998;42.656;23.382;2022-12-07T08:04:48;34.70;;;18.23;;
68178;SDS011;54998;42.656;23.382;2022-12-07T08:07:14;40.85;;;18.98;;
68178;SDS011;54998;42.656;23.382;2022-12-07T08:09:40;34.03;;;17.55;;
68178;SDS011;54998;42.656;23.382;2022-12-07T08:12:06;35.33;;;17.17;;
68178;SDS011;54998;42.656;23.382;2022-12-07T08:14:32;36.88;;;16.17;;
68178;SDS011;54998;42.656;23.382;2022-12-07T08:16:58;40.88;;;16.67;;
68178;SDS011;54998;42.656;23.382;2022-12-07T08:19:24;34.95;;;16.73;;
68178;SDS011;54998;42.656;23.382;2022-12-07T08:21:50;38.75;;;18.20;;
68178;SDS011;54998;42.656;23.382;2022-12-07T08:24:15;33.55;;;17.40;;
68178;SDS011;54998;42.656;23.382;2022-12-07T08:26:41;40.10;;;17.95;;
68178;SDS011;54998;42.656;23.382;2022-12-07T08:29:07;35.63;;;16.80;;
68178;SDS011;54998;42.656;23.382;2022-12-07T08:31:33;30.45;;;16.80;;
68178;SDS011;54998;42.656;23.382;2022-12-07T08:33:58;34.92;;;18.23;;
68178;SDS011;54998;42.656;23.382;2022-12-07T08:36:24;35.45;;;17.88;;
68178;SDS011;54998;42.656;23.382;2022-12-07T08:38:50;35.38;;;17.45;;
68178;SDS011;54998;42.656;23.382;2022-12-07T08:41:15;46.05;;;21.33;;
68178;SDS011;54998;42.656;23.382;2022-12-07T08:43:41;42.83;;;22.65;;
68178;SDS011;54998;42.656;23.382;2022-12-07T08:46:12;45.10;;;21.13;;
68178;SDS011;54998;42.656;23.382;2022-12-07T08:49:20;38.67;;;21.45;;
68178;SDS011;54998;42.656;23.382;2022-12-07T08:51:46;59.53;;;25.77;;
68178;SDS011;54998;42.656;23.382;2022-12-07T08:54:13;42.85;;;23.50;;
68178;SDS011;54998;42.656;23.382;2022-12-07T08:56:41;47.30;;;22.50;;
68178;SDS011;54998;42.656;23.382;2022-12-07T08:59:07;52.70;;;22.80;;
68178;SDS011;54998;42.656;23.382;2022-12-07T09:01:33;37.78;;;21.42;;
68178;SDS011;54998;42.656;23.382;2022-12-07T09:03:58;42.03;;;20.98;;
68178;SDS011;54998;42.656;23.382;2022-12-07T09:06:24;42.90;;;21.42;;
68178;SDS011;54998;42.656;23.382;2022-12-07T09:08:50;48.83;;;23.73;;
68178;SDS011;54998;42.656;23.382;2022-12-07T09:11:19;45.00;;;22.88;;
68178;SDS011;54998;42.656;23.382;2022-12-07T09:13:44;45.47;;;23.10;;
68178;SDS011;54998;42.656;23.382;2022-12-07T09:16:09;45.25;;;20.75;;
68178;SDS011;54998;42.656;23.382;2022-12-07T09:18:35;38.03;;;20.13;;
68178;SDS011;54998;42.656;23.382;2022-12-07T09:21:01;39.40;;;19.17;;
68178;SDS011;54998;42.656;23.382;2022-12-07T09:23:26;38.40;;;19.20;;
68178;SDS011;54998;42.656;23.382;2022-12-07T09:25:52;43.08;;;19.23;;
68178;SDS011;54998;42.656;23.382;2022-12-07T09:28:17;41.85;;;19.77;;
68178;SDS011;54998;42.656;23.382;2022-12-07T09:30:46;42.05;;;19.13;;
68178;SDS011;54998;42.656;23.382;2022-12-07T09:33:13;47.20;;;21.02;;
68178;SDS011;54998;42.656;23.382;2022-12-07T09:35:43;46.15;;;22.00;;
68178;SDS011;54998;42.656;23.382;2022-12-07T09:38:12;41.42;;;20.27;;
68178;SDS011;54998;42.656;23.382;2022-12-07T09:40:38;43.58;;;20.02;;
68178;SDS011;54998;42.656;23.382;2022-12-07T09:43:03;42.85;;;21.10;;
68178;SDS011;54998;42.656;23.382;2022-12-07T09:45:33;44.53;;;20.65;;
68178;SDS011;54998;42.656;23.382;2022-12-07T09:48:02;44.88;;;20.25;;
68178;SDS011;54998;42.656;23.382;2022-12-07T09:50:29;43.42;;;21.42;;
68178;SDS011;54998;42.656;23.382;2022-12-07T09:52:56;46.25;;;20.98;;
68178;SDS011;54998;42.656;23.382;2022-12-07T09:55:49;40.53;;;18.65;;
68178;SDS011;54998;42.656;23.382;2022-12-07T09:58:22;37.13;;;19.00;;
68178;SDS011;54998;42.656;23.382;2022-12-07T10:00:55;42.33;;;18.55;;
68178;SDS011;54998;42.656;23.382;2022-12-07T10:03:25;38.47;;;19.52;;
68178;SDS011;54998;42.656;23.382;2022-12-07T10:05:52;37.65;;;16.67;;
68178;SDS011;54998;42.656;23.382;2022-12-07T10:08:18;37.63;;;16.50;;
68178;SDS011;54998;42.656;23.382;2022-12-07T10:10:44;40.97;;;17.65;;
68178;SDS011;54998;42.656;23.382;2022-12-07T10:13:13;39.97;;;17.23;;
68178;SDS011;54998;42.656;23.382;2022-12-07T10:15:53;37.50;;;18.80;;
68178;SDS011;54998;42.656;23.382;2022-12-07T10:18:28;40.22;;;18.05;;
68178;SDS011;54998;42.656;23.382;2022-12-07T10:31:41;35.80;;;18.05;;
68178;SDS011;54998;42.656;23.382;2022-12-07T10:34:27;35.75;;;18.05;;
68178;SDS011;54998;42.656;23.382;2022-12-07T10:37:06;32.83;;;16.75;;
68178;SDS011;54998;42.656;23.382;2022-12-07T10:39:50;39.40;;;16.55;;
68178;SDS011;54998;42.656;23.382;2022-12-07T10:50:34;31.20;;;15.35;;
68178;SDS011;54998;42.656;23.382;2022-12-07T10:53:14;35.28;;;16.15;;
68178;SDS011;54998;42.656;23.382;2022-12-07T10:55:51;37.92;;;17.02;;
68178;SDS011;54998;42.656;23.382;2022-12-07T11:03:52;33.72;;;16.73;;
68178;SDS011;54998;42.656;23.382;2022-12-07T11:17:21;30.60;;;15.93;;
68178;SDS011;54998;42.656;23.382;2022-12-07T11:20:11;33.75;;;16.27;;
68178;SDS011;54998;42.656;23.382;2022-12-07T11:30:47;27.08;;;12.77;;
68178;SDS011;54998;42.656;23.382;2022-12-07T11:38:15;28.23;;;13.23;;
68178;SDS011;54998;42.656;23.382;2022-12-07T11:40:49;31.75;;;14.63;;
68178;SDS011;54998;42.656;23.382;2022-12-07T11:45:44;29.58;;;13.82;;
68178;SDS011;54998;42.656;23.382;2022-12-07T11:48:27;31.33;;;15.20;;
68178;SDS011;54998;42.656;23.382;2022-12-07T11:50:59;35.45;;;14.95;;
68178;SDS011;54998;42.656;23.382;2022-12-07T11:53:27;33.53;;;15.38;;
68178;SDS011;54998;42.656;23.382;2022-12-07T12:03:42;32.20;;;15.30;;
68178;SDS011;54998;42.656;23.382;2022-12-07T12:06:11;28.25;;;14.50;;
68178;SDS011;54998;42.656;23.382;2022-12-07T12:08:55;33.20;;;15.80;;
68178;SDS011;54998;42.656;23.382;2022-12-07T12:14:14;35.10;;;15.98;;
68178;SDS011;54998;42.656;23.382;2022-12-07T12:23:45;29.58;;;13.85;;
68178;SDS011;54998;42.656;23.382;2022-12-07T12:25:52;32.13;;;13.57;;
68178;SDS011;54998;42.656;23.382;2022-12-07T12:28:34;35.08;;;15.10;;
68178;SDS011;54998;42.656;23.382;2022-12-07T12:33:30;32.22;;;15.50;;
68178;SDS011;54998;42.656;23.382;2022-12-07T12:51:53;33.17;;;14.40;;
68178;SDS011;54998;42.656;23.382;2022-12-07T12:56:50;28.55;;;13.98;;
68178;SDS011;54998;42.656;23.382;2022-12-07T12:59:29;31.35;;;13.30;;
68178;SDS011;54998;42.656;23.382;2022-12-07T13:02:08;34.55;;;14.00;;
68178;SDS011;54998;42.656;23.382;2022-12-07T13:04:39;27.10;;;12.23;;
68178;SDS011;54998;42.656;23.382;2022-12-07T13:07:13;24.08;;;11.10;;
68178;SDS011;54998;42.656;23.382;2022-12-07T13:13:21;23.90;;;11.13;;
68178;SDS011;54998;42.656;23.382;2022-12-07T13:57:30;23.23;;;9.90;;
68178;SDS011;54998;42.656;23.382;2022-12-07T13:59:59;19.88;;;9.10;;
68178;SDS011;54998;42.656;23.382;2022-12-07T14:02:29;22.42;;;10.95;;
68178;SDS011;54998;42.656;23.382;2022-12-07T14:05:10;21.10;;;10.05;;
68178;SDS011;54998;42.656;23.382;2022-12-07T14:10:39;23.40;;;10.63;;
68178;SDS011;54998;42.656;23.382;2022-12-07T14:16:05;21.20;;;10.45;;
68178;SDS011;54998;42.656;23.382;2022-12-07T14:18:40;28.77;;;11.48;;
68178;SDS011;54998;42.656;23.382;2022-12-07T14:21:06;26.30;;;11.38;;
68178;SDS011;54998;42.656;23.382;2022-12-07T14:23:35;28.80;;;11.73;;
68178;SDS011;54998;42.656;23.382;2022-12-07T14:26:09;24.05;;;11.02;;
68178;SDS011;54998;42.656;23.382;2022-12-07T14:28:38;26.77;;;12.25;;
68178;SDS011;54998;42.656;23.382;2022-12-07T14:33:39;24.42;;;10.73;;
68178;SDS011;54998;42.656;23.382;2022-12-07T14:36:06;32.00;;;13.63;;
68178;SDS011;54998;42.656;23.382;2022-12-07T14:38:33;29.70;;;11.90;;
68178;SDS011;54998;42.656;23.382;2022-12-07T14:40:59;33.03;;;12.15;;
68178;SDS011;54998;42.656;23.382;2022-12-07T14:43:45;29.13;;;11.50;;
68178;SDS011;54998;42.656;23.382;2022-12-07T14:46:10;34.75;;;13.95;;
68178;SDS011;54998;42.656;23.382;2022-12-07T14:48:36;32.10;;;12.45;;
68178;SDS011;54998;42.656;23.382;2022-12-07T14:51:01;34.25;;;13.77;;
68178;SDS011;54998;42.656;23.382;2022-12-07T14:53:29;34.53;;;13.40;;
68178;SDS011;54998;42.656;23.382;2022-12-07T14:56:00;29.15;;;12.90;;
68178;SDS011;54998;42.656;23.382;2022-12-07T14:58:26;34.47;;;12.68;;
68178;SDS011;54998;42.656;23.382;2022-12-07T15:00:52;30.02;;;12.82;;
68178;SDS011;54998;42.656;23.382;2022-12-07T15:03:17;30.67;;;13.48;;
68178;SDS011;54998;42.656;23.382;2022-12-07T15:05:42;27.15;;;12.90;;
68178;SDS011;54998;42.656;23.382;2022-12-07T15:08:09;29.25;;;12.68;;
68178;SDS011;54998;42.656;23.382;2022-12-07T15:10:36;31.23;;;13.57;;
68178;SDS011;54998;42.656;23.382;2022-12-07T15:13:03;36.42;;;15.82;;
68178;SDS011;54998;42.656;23.382;2022-12-07T15:15:48;30.45;;;14.68;;
68178;SDS011;54998;42.656;23.382;2022-12-07T15:18:16;39.05;;;14.40;;
68178;SDS011;54998;42.656;23.382;2022-12-07T15:20:42;37.22;;;15.23;;
68178;SDS011;54998;42.656;23.382;2022-12-07T15:23:07;40.75;;;15.40;;
68178;SDS011;54998;42.656;23.382;2022-12-07T15:25:34;41.00;;;14.40;;
68178;SDS011;54998;42.656;23.382;2022-12-07T15:27:59;31.02;;;12.65;;
68178;SDS011;54998;42.656;23.382;2022-12-07T15:30:25;33.60;;;13.73;;
68178;SDS011;54998;42.656;23.382;2022-12-07T15:32:51;42.60;;;16.55;;
68178;SDS011;54998;42.656;23.382;2022-12-07T15:35:17;40.55;;;15.60;;
68178;SDS011;54998;42.656;23.382;2022-12-07T15:37:43;30.10;;;13.82;;
68178;SDS011;54998;42.656;23.382;2022-12-07T15:40:09;31.27;;;12.95;;
68178;SDS011;54998;42.656;23.382;2022-12-07T15:42:35;31.48;;;14.38;;
68178;SDS011;54998;42.656;23.382;2022-12-07T15:45:01;34.70;;;14.52;;
68178;SDS011;54998;42.656;23.382;2022-12-07T15:47:39;43.95;;;15.55;;
68178;SDS011;54998;42.656;23.382;2022-12-07T15:50:11;31.95;;;14.60;;
68178;SDS011;54998;42.656;23.382;2022-12-07T15:52:38;32.97;;;14.63;;
68178;SDS011;54998;42.656;23.382;2022-12-07T15:55:04;45.15;;;20.35;;
68178;SDS011;54998;42.656;23.382;2022-12-07T15:57:30;42.50;;;22.65;;
68178;SDS011;54998;42.656;23.382;2022-12-07T15:59:57;35.78;;;15.93;;
68178;SDS011;54998;42.656;23.382;2022-12-07T16:02:23;38.00;;;15.98;;
68178;SDS011;54998;42.656;23.382;2022-12-07T16:04:49;34.92;;;16.15;;
68178;SDS011;54998;42.656;23.382;2022-12-07T16:07:15;38.10;;;15.55;;
68178;SDS011;54998;42.656;23.382;2022-12-07T16:09:41;31.45;;;15.25;;
68178;SDS011;54998;42.656;23.382;2022-12-07T16:12:07;33.45;;;15.65;;
68178;SDS011;54998;42.656;23.382;2022-12-07T16:14:33;36.78;;;15.40;;
68178;SDS011;54998;42.656;23.382;2022-12-07T16:16:59;36.70;;;15.18;;
68178;SDS011;54998;42.656;23.382;2022-12-07T16:19:25;44.83;;;18.50;;
68178;SDS011;54998;42.656;23.382;2022-12-07T16:21:50;49.45;;;19.80;;
68178;SDS011;54998;42.656;23.382;2022-12-07T16:24:16;41.72;;;17.52;;
68178;SDS011;54998;42.656;23.382;2022-12-07T16:26:42;47.97;;;20.80;;
68178;SDS011;54998;42.656;23.382;2022-12-07T16:29:10;46.95;;;20.65;;
68178;SDS011;54998;42.656;23.382;2022-12-07T16:31:36;43.88;;;18.95;;
68178;SDS011;54998;42.656;23.382;2022-12-07T16:34:02;45.38;;;18.35;;
68178;SDS011;54998;42.656;23.382;2022-12-07T16:36:28;56.28;;;22.15;;
68178;SDS011;54998;42.656;23.382;2022-12-07T16:38:53;55.33;;;21.10;;
68178;SDS011;54998;42.656;23.382;2022-12-07T16:41:19;50.20;;;18.17;;
68178;SDS011;54998;42.656;23.382;2022-12-07T16:43:44;43.03;;;17.75;;
68178;SDS011;54998;42.656;23.382;2022-12-07T16:46:10;48.10;;;17.50;;
68178;SDS011;54998;42.656;23.382;2022-12-07T16:48:38;65.32;;;27.63;;
68178;SDS011;54998;42.656;23.382;2022-12-07T16:51:05;50.08;;;22.15;;
68178;SDS011;54998;42.656;23.382;2022-12-07T16:53:33;50.72;;;19.80;;
68178;SDS011;54998;42.656;23.382;2022-12-07T16:56:01;54.05;;;21.92;;
68178;SDS011;54998;42.656;23.382;2022-12-07T16:58:27;47.92;;;20.52;;
68178;SDS011;54998;42.656;23.382;2022-12-07T17:00:53;51.33;;;20.85;;
68178;SDS011;54998;42.656;23.382;2022-12-07T17:03:19;58.63;;;23.20;;
68178;SDS011;54998;42.656;23.382;2022-12-07T17:05:45;49.83;;;22.48;;
68178;SDS011;54998;42.656;23.382;2022-12-07T17:08:11;61.15;;;20.67;;
68178;SDS011;54998;42.656;23.382;2022-12-07T17:10:38;54.65;;;23.35;;
68178;SDS011;54998;42.656;23.382;2022-12-07T17:13:06;50.97;;;20.90;;